Terminal Aerodrome Forecast
Issued by NWS Mt. Holly, NJ

Home | Current Version | Previous Version | Text Only | Print | Product List | Glossary On
Versions: 1 2 3 4 5 6 7 8 9 10 11 12 13 14 15 16 17 18
000
FTUS41 KPHI 261125
TAFILG
TAF
KILG 261125Z 2612/2712 04010KT P6SM OVC006
     FM261500 01008KT P6SM OVC012
     FM261900 36006KT P6SM BKN020
     FM270400 VRB03KT P6SM BKN012
     FM270700 10004KT 5SM BR BKN007 OVC015=

USA.gov is the U.S. government's official web portal to all federal, state and local government web resources and services.